createdAt,value
2023-01-26T00:01:54.082Z,100.00
2023-01-26T00:04:44.667Z,100.00
2023-01-26T00:07:34.420Z,99.83
2023-01-26T00:10:16.703Z,99.88
2023-01-26T00:13:08.918Z,99.97
2023-01-26T00:15:50.124Z,100.00
2023-01-26T00:18:42.158Z,100.00
2023-01-26T00:21:32.961Z,99.99
2023-01-26T00:24:24.069Z,99.92
2023-01-26T00:27:03.940Z,99.99
2023-01-26T00:29:54.582Z,100.00
2023-01-26T00:32:45.363Z,100.00
2023-01-26T00:35:36.056Z,99.99
2023-01-26T00:38:26.875Z,100.00
2023-01-26T00:41:31.582Z,100.00
2023-01-26T00:44:13.198Z,100.00
2023-01-26T00:47:03.801Z,100.00
2023-01-26T00:49:43.903Z,100.00
2023-01-26T00:52:34.713Z,100.00
2023-01-26T00:55:32.178Z,100.00
2023-01-26T00:58:22.921Z,100.00
2023-01-26T01:01:14.022Z,100.00
2023-01-26T01:03:57.547Z,100.00
2023-01-26T01:06:28.324Z,100.00
2023-01-26T01:09:01.917Z,100.00
2023-01-26T01:11:52.920Z,100.00
2023-01-26T01:14:43.785Z,100.00
2023-01-26T01:17:36.461Z,100.00
2023-01-26T01:20:27.414Z,100.00
2023-01-26T01:23:18.945Z,100.00
2023-01-26T01:26:08.640Z,100.00
2023-01-26T01:28:59.405Z,100.00
2023-01-26T01:31:49.953Z,100.00
2023-01-26T01:34:40.645Z,100.00
2023-01-26T01:37:33.650Z,100.00
2023-01-26T01:40:24.475Z,100.00
2023-01-26T01:43:13.120Z,100.00
2023-01-26T01:46:08.651Z,100.00
2023-01-26T01:49:03.824Z,100.00
2023-01-26T01:51:41.281Z,100.00
2023-01-26T01:54:36.034Z,100.00
2023-01-26T01:57:17.697Z,100.00
2023-01-26T01:59:58.953Z,100.00
2023-01-26T02:03:05.431Z,100.00
2023-01-26T02:06:03.888Z,100.00
2023-01-26T02:08:57.110Z,100.00
2023-01-26T02:11:33.769Z,100.00
2023-01-26T02:14:07.070Z,100.00
2023-01-26T02:16:40.977Z,100.00
2023-01-26T02:19:41.587Z,100.00
2023-01-26T02:22:43.293Z,100.00
2023-01-26T02:25:41.104Z,100.00
2023-01-26T02:28:32.828Z,100.00
2023-01-26T02:31:25.164Z,100.00
2023-01-26T02:34:15.842Z,100.00
2023-01-26T02:37:06.529Z,100.00
2023-01-26T02:40:03.593Z,100.00
2023-01-26T02:42:55.352Z,100.00
2023-01-26T02:45:46.567Z,100.00
2023-01-26T02:48:54.664Z,100.00
2023-01-26T02:51:28.583Z,100.00
2023-01-26T02:54:01.562Z,100.00
2023-01-26T02:56:31.998Z,100.00
2023-01-26T02:59:15.381Z,100.00
2023-01-26T03:02:06.130Z,100.00
2023-01-26T03:04:56.911Z,100.00
2023-01-26T03:07:40.804Z,100.00
2023-01-26T03:10:31.745Z,100.00
2023-01-26T03:13:05.451Z,100.00
2023-01-26T03:15:56.207Z,100.00
2023-01-26T03:19:04.881Z,100.00
2023-01-26T03:22:13.513Z,100.00
2023-01-26T03:25:22.909Z,100.00
2023-01-26T03:28:06.526Z,100.00
2023-01-26T03:30:58.991Z,100.00
2023-01-26T03:33:49.764Z,100.00
2023-01-26T03:36:40.491Z,100.00
2023-01-26T03:39:48.625Z,100.00
2023-01-26T03:42:55.446Z,100.00
2023-01-26T03:45:52.734Z,100.00
2023-01-26T03:49:00.829Z,100.00
2023-01-26T03:52:08.902Z,100.00
2023-01-26T03:55:17.217Z,100.00
2023-01-26T03:57:48.832Z,100.00
2023-01-26T04:00:24.183Z,100.00
2023-01-26T04:03:21.276Z,100.00
2023-01-26T04:06:28.697Z,100.00
2023-01-26T04:09:15.259Z,100.00
2023-01-26T04:12:07.169Z,100.00
2023-01-26T04:15:03.750Z,100.00
2023-01-26T04:18:00.460Z,100.00
2023-01-26T04:20:58.917Z,100.00
2023-01-26T04:23:49.807Z,100.00
2023-01-26T04:26:20.597Z,100.00
2023-01-26T04:28:54.778Z,100.00
2023-01-26T04:31:28.280Z,100.00
2023-01-26T04:34:19.312Z,100.00
2023-01-26T04:37:11.526Z,100.00
2023-01-26T04:39:49.513Z,100.00
2023-01-26T04:42:40.383Z,100.00
2023-01-26T04:45:14.390Z,100.00
2023-01-26T04:47:54.654Z,100.00
2023-01-26T04:50:45.422Z,100.00
2023-01-26T04:53:23.680Z,100.00
2023-01-26T04:55:53.616Z,100.00
2023-01-26T04:58:27.488Z,100.00
2023-01-26T05:00:59.989Z,100.00
2023-01-26T05:03:30.492Z,100.00
2023-01-26T05:06:14.390Z,100.00
2023-01-26T05:08:59.587Z,100.00
2023-01-26T05:11:35.621Z,100.00
2023-01-26T05:14:32.197Z,100.00
2023-01-26T05:17:23.065Z,100.00
2023-01-26T05:20:26.108Z,100.00
2023-01-26T05:23:15.644Z,100.00
2023-01-26T05:26:21.587Z,100.00
2023-01-26T05:29:24.621Z,100.00
2023-01-26T05:31:58.356Z,100.00
2023-01-26T05:34:36.510Z,100.00
2023-01-26T05:37:08.492Z,100.00
2023-01-26T05:39:46.307Z,100.00
2023-01-26T05:42:35.858Z,100.00
2023-01-26T05:45:32.447Z,100.00
2023-01-26T05:48:05.408Z,100.00
2023-01-26T05:50:39.078Z,100.00
2023-01-26T05:53:33.199Z,100.00
2023-01-26T05:56:12.723Z,100.00
2023-01-26T05:58:48.177Z,100.00
2023-01-26T06:01:18.939Z,100.00
2023-01-26T06:03:58.752Z,100.00
2023-01-26T06:06:42.035Z,100.00
2023-01-26T06:09:27.388Z,100.00
2023-01-26T06:12:20.612Z,100.00
2023-01-26T06:15:20.497Z,100.00
2023-01-26T06:18:11.633Z,100.00
2023-01-26T06:20:51.700Z,100.00
2023-01-26T06:23:37.719Z,100.00
2023-01-26T06:26:16.041Z,100.00
2023-01-26T06:28:49.596Z,100.00
2023-01-26T06:31:40.913Z,100.00
2023-01-26T06:34:13.007Z,100.00
2023-01-26T06:36:53.146Z,100.00
2023-01-26T06:39:43.998Z,100.00
2023-01-26T06:42:34.748Z,100.00
2023-01-26T06:45:10.457Z,100.00
2023-01-26T06:47:48.387Z,100.00
2023-01-26T06:50:21.838Z,100.00
2023-01-26T06:53:00.488Z,100.00
2023-01-26T06:55:56.946Z,100.00
2023-01-26T06:58:51.251Z,100.00
2023-01-26T07:01:45.423Z,100.00
2023-01-26T07:04:36.245Z,100.00
2023-01-26T07:07:15.710Z,100.00
2023-01-26T07:09:57.550Z,100.00
2023-01-26T07:12:48.902Z,100.00
2023-01-26T07:15:39.597Z,100.00
2023-01-26T07:18:30.315Z,100.00
2023-01-26T07:21:04.886Z,100.00
2023-01-26T07:23:47.369Z,100.00
2023-01-26T07:26:18.301Z,100.00
2023-01-26T07:29:09.084Z,100.00
2023-01-26T07:31:59.821Z,100.00
2023-01-26T07:34:36.196Z,100.00
2023-01-26T07:37:06.989Z,100.00
2023-01-26T07:39:46.659Z,100.00
2023-01-26T07:42:17.108Z,100.00
2023-01-26T07:45:12.067Z,100.00
2023-01-26T07:48:02.843Z,100.00
2023-01-26T07:50:42.303Z,100.00
2023-01-26T07:53:37.706Z,100.00
2023-01-26T07:56:28.532Z,100.00
2023-01-26T07:59:19.563Z,100.00
2023-01-26T08:02:11.908Z,100.00
2023-01-26T08:05:02.799Z,100.00
2023-01-26T08:07:53.435Z,100.00
2023-01-26T08:10:44.819Z,100.00
2023-01-26T08:13:36.309Z,100.00
2023-01-26T08:16:13.490Z,100.00
2023-01-26T08:19:04.542Z,100.00
2023-01-26T08:21:46.499Z,100.00
2023-01-26T08:24:19.610Z,100.00
2023-01-26T08:27:10.513Z,100.00
2023-01-26T08:29:51.522Z,100.00
2023-01-26T08:32:42.096Z,100.00
2023-01-26T08:35:34.061Z,100.00
2023-01-26T08:38:24.863Z,100.00
2023-01-26T08:40:55.930Z,100.00
2023-01-26T08:43:45.816Z,100.00
2023-01-26T08:46:35.397Z,100.00
2023-01-26T08:49:26.188Z,100.00
2023-01-26T08:52:16.909Z,100.00
2023-01-26T08:54:53.763Z,100.00
2023-01-26T08:57:35.516Z,100.00
2023-01-26T09:00:18.014Z,100.00
2023-01-26T09:03:09.481Z,100.00
2023-01-26T09:06:00.198Z,100.00
2023-01-26T09:08:50.903Z,100.00
2023-01-26T09:11:31.752Z,100.00
2023-01-26T09:14:42.614Z,100.00
2023-01-26T09:17:23.319Z,100.00
2023-01-26T09:20:14.940Z,100.00
2023-01-26T09:23:05.618Z,100.00
2023-01-26T09:25:56.695Z,100.00
2023-01-26T09:28:50.497Z,100.00
2023-01-26T09:31:44.098Z,100.00
2023-01-26T09:34:26.209Z,100.00
2023-01-26T09:37:17.012Z,100.00
2023-01-26T09:39:57.781Z,100.00
2023-01-26T09:43:02.805Z,100.00
2023-01-26T09:46:06.005Z,100.00
2023-01-26T09:49:06.950Z,100.00
2023-01-26T09:51:53.383Z,100.00
2023-01-26T09:54:46.103Z,100.00
2023-01-26T09:57:42.974Z,100.00
2023-01-26T10:00:37.086Z,100.00
2023-01-26T10:03:29.889Z,100.00
2023-01-26T10:06:22.346Z,100.00
2023-01-26T10:09:22.839Z,100.00
2023-01-26T10:12:21.048Z,100.00
2023-01-26T10:15:23.180Z,100.00
2023-01-26T10:18:09.357Z,100.00
2023-01-26T10:21:03.282Z,100.00
2023-01-26T10:23:55.349Z,100.00
2023-01-26T10:26:46.214Z,100.00
2023-01-26T10:29:37.115Z,100.00
2023-01-26T10:32:28.067Z,100.00
2023-01-26T10:35:21.761Z,100.00
2023-01-26T10:37:56.195Z,100.00
2023-01-26T10:40:47.537Z,100.00
2023-01-26T10:43:42.411Z,100.00
2023-01-26T10:46:36.034Z,100.00
2023-01-26T10:49:28.294Z,100.00
2023-01-26T10:52:22.825Z,100.00
2023-01-26T10:55:21.400Z,100.00
2023-01-26T10:58:46.679Z,100.00
2023-01-26T11:01:54.609Z,100.00
2023-01-26T11:05:05.285Z,100.00
2023-01-26T11:08:00.424Z,100.00
2023-01-26T11:10:57.432Z,100.00
2023-01-26T11:13:48.241Z,100.00
2023-01-26T11:16:39.611Z,100.00
2023-01-26T11:19:33.196Z,100.00
2023-01-26T11:22:29.673Z,100.00
2023-01-26T11:25:25.965Z,100.00
2023-01-26T11:28:32.720Z,100.00
2023-01-26T11:31:35.367Z,100.00
2023-01-26T11:34:37.731Z,100.00
2023-01-26T11:37:32.771Z,100.00
2023-01-26T11:40:33.242Z,100.00
2023-01-26T11:43:39.805Z,100.00
2023-01-26T11:46:48.138Z,100.00
2023-01-26T11:49:53.341Z,100.00
2023-01-26T11:52:56.456Z,99.99
2023-01-26T11:55:57.260Z,100.00
2023-01-26T11:58:55.320Z,100.00
2023-01-26T12:02:16.308Z,99.91
2023-01-26T12:04:50.267Z,99.26
2023-01-26T12:07:54.659Z,99.82
2023-01-26T12:10:57.133Z,99.81
2023-01-26T12:13:52.726Z,99.93
2023-01-26T12:16:58.073Z,99.96
2023-01-26T12:20:04.882Z,99.98
2023-01-26T12:23:00.294Z,100.00
2023-01-26T12:25:37.345Z,100.00
2023-01-26T12:28:34.737Z,99.92
2023-01-26T12:31:32.118Z,99.71
2023-01-26T12:34:28.561Z,99.99
2023-01-26T12:37:39.880Z,99.99
2023-01-26T12:40:42.929Z,99.44
2023-01-26T12:43:49.041Z,99.88
2023-01-26T12:46:44.704Z,99.74
2023-01-26T12:49:41.761Z,99.11
2023-01-26T12:52:39.404Z,98.70
2023-01-26T12:55:23.797Z,98.88
2023-01-26T12:58:18.378Z,98.43
2023-01-26T13:01:06.352Z,97.75
2023-01-26T13:03:59.463Z,98.01
2023-01-26T13:06:40.427Z,97.37
2023-01-26T13:09:31.528Z,97.36
2023-01-26T13:12:49.439Z,97.30
2023-01-26T13:15:27.578Z,96.67
2023-01-26T13:18:20.509Z,95.54
2023-01-26T13:21:12.267Z,95.74
2023-01-26T13:24:03.026Z,96.16
2023-01-26T13:26:56.790Z,96.13
2023-01-26T13:29:56.901Z,95.03
2023-01-26T13:33:06.727Z,94.25
2023-01-26T13:35:51.815Z,94.13
2023-01-26T13:38:45.252Z,94.13
2023-01-26T13:41:25.891Z,93.53
2023-01-26T13:44:22.877Z,93.08
2023-01-26T13:47:21.182Z,94.10
2023-01-26T13:50:30.130Z,93.45
2023-01-26T13:53:02.108Z,92.58
2023-01-26T13:55:44.527Z,93.67
2023-01-26T13:58:19.938Z,94.09
2023-01-26T14:01:17.149Z,93.75
2023-01-26T14:04:08.753Z,93.02
2023-01-26T14:07:04.800Z,92.87
2023-01-26T14:10:01.144Z,92.69
2023-01-26T14:12:51.880Z,92.49
2023-01-26T14:15:42.772Z,91.04
2023-01-26T14:18:23.564Z,90.83
2023-01-26T14:21:05.263Z,91.50
2023-01-26T14:23:54.942Z,92.33
2023-01-26T14:26:39.154Z,91.54
2023-01-26T14:29:31.648Z,90.97
2023-01-26T14:32:25.410Z,90.48
2023-01-26T14:35:24.605Z,90.72
2023-01-26T14:38:19.910Z,90.43
2023-01-26T14:41:17.342Z,90.84
2023-01-26T14:43:53.930Z,91.33
2023-01-26T14:46:36.477Z,91.14
2023-01-26T14:49:34.308Z,90.15
2023-01-26T14:52:28.077Z,89.69
2023-01-26T14:55:14.489Z,90.34
2023-01-26T14:57:47.914Z,89.98
2023-01-26T15:00:39.643Z,89.36
2023-01-26T15:03:34.705Z,89.24
2023-01-26T15:06:23.899Z,88.77
2023-01-26T15:09:26.722Z,88.18
2023-01-26T15:12:18.366Z,89.33
2023-01-26T15:15:15.844Z,88.15
2023-01-26T15:18:18.258Z,87.34
2023-01-26T15:21:13.645Z,87.13
2023-01-26T15:24:16.139Z,86.21
2023-01-26T15:27:13.417Z,85.93
2023-01-26T15:30:06.556Z,84.82
2023-01-26T15:32:57.856Z,85.12
2023-01-26T15:35:59.652Z,86.32
2023-01-26T15:38:35.712Z,87.31
2023-01-26T15:41:11.531Z,87.03
2023-01-26T15:43:42.064Z,86.56
2023-01-26T15:46:32.823Z,86.68
2023-01-26T15:49:24.087Z,87.13
2023-01-26T15:52:17.630Z,86.70
2023-01-26T15:55:21.154Z,87.02
2023-01-26T15:58:12.018Z,86.65
2023-01-26T16:01:03.065Z,86.79
2023-01-26T16:03:53.881Z,86.96
2023-01-26T16:06:44.589Z,87.23
2023-01-26T16:09:27.919Z,88.09
2023-01-26T16:12:33.794Z,88.42
2023-01-26T16:15:39.361Z,88.74
2023-01-26T16:18:30.203Z,88.91
2023-01-26T16:21:21.967Z,88.91
2023-01-26T16:24:13.306Z,88.81
2023-01-26T16:27:03.209Z,88.48
2023-01-26T16:29:53.977Z,88.84
2023-01-26T16:32:44.819Z,88.97
2023-01-26T16:35:29.902Z,89.18
2023-01-26T16:38:20.776Z,89.03
2023-01-26T16:41:01.589Z,88.41
2023-01-26T16:43:35.418Z,88.66
2023-01-26T16:46:16.184Z,88.81
2023-01-26T16:48:49.578Z,88.72
2023-01-26T16:51:41.731Z,88.16
2023-01-26T16:54:32.516Z,88.59
2023-01-26T16:57:06.226Z,88.61
2023-01-26T16:59:50.717Z,88.96
2023-01-26T17:02:28.193Z,89.01
2023-01-26T17:05:20.870Z,87.91
2023-01-26T17:08:11.766Z,88.62
2023-01-26T17:11:00.684Z,88.93
2023-01-26T17:13:35.056Z,88.41
2023-01-26T17:16:15.358Z,88.53
2023-01-26T17:18:55.173Z,88.47
2023-01-26T17:21:44.458Z,88.76
2023-01-26T17:24:35.944Z,88.19
2023-01-26T17:27:27.724Z,88.44
2023-01-26T17:30:19.826Z,87.84
2023-01-26T17:33:09.783Z,88.14
2023-01-26T17:36:30.585Z,88.39
2023-01-26T17:39:30.091Z,87.83
2023-01-26T17:42:24.273Z,88.12
2023-01-26T17:45:05.477Z,87.85
2023-01-26T17:47:56.645Z,88.07
2023-01-26T17:50:30.872Z,88.61
2023-01-26T17:53:24.423Z,88.73
2023-01-26T17:56:17.775Z,88.84
2023-01-26T17:59:08.510Z,88.55
2023-01-26T18:01:59.364Z,88.75
2023-01-26T18:04:50.250Z,88.57
2023-01-26T18:07:41.028Z,88.42
2023-01-26T18:12:23.593Z,88.46
2023-01-26T18:14:32.800Z,88.90
2023-01-26T18:17:23.713Z,88.36
2023-01-26T18:20:17.773Z,88.68
2023-01-26T18:23:08.710Z,88.92
2023-01-26T18:26:05.454Z,88.85
2023-01-26T18:28:46.817Z,89.07
2023-01-26T18:31:40.632Z,89.07
2023-01-26T18:34:31.503Z,88.77
2023-01-26T18:37:22.332Z,88.73
2023-01-26T18:40:15.298Z,89.17
2023-01-26T18:43:06.145Z,89.55
2023-01-26T18:45:57.109Z,89.61
2023-01-26T18:48:42.563Z,89.84
2023-01-26T18:51:25.244Z,89.97
2023-01-26T18:54:16.500Z,90.10
2023-01-26T18:57:07.453Z,90.16
2023-01-26T18:59:58.754Z,90.28
2023-01-26T19:02:49.619Z,90.53
2023-01-26T19:05:41.774Z,90.50
2023-01-26T19:08:34.457Z,90.71
2023-01-26T19:11:25.890Z,91.06
2023-01-26T19:14:16.664Z,91.30
2023-01-26T19:17:13.989Z,91.31
2023-01-26T19:20:05.509Z,91.50
2023-01-26T19:22:57.553Z,91.62
2023-01-26T19:25:28.349Z,91.81
2023-01-26T19:28:19.397Z,91.81
2023-01-26T19:31:05.970Z,91.97
2023-01-26T19:33:50.279Z,92.26
2023-01-26T19:36:35.673Z,92.24
2023-01-26T19:39:11.076Z,92.65
2023-01-26T19:42:01.866Z,92.84
2023-01-26T19:44:42.780Z,92.97
2023-01-26T19:47:33.697Z,93.15
2023-01-26T19:50:15.643Z,93.35
2023-01-26T19:53:07.726Z,93.50
2023-01-26T19:56:00.602Z,93.61
2023-01-26T19:58:54.935Z,93.72
2023-01-26T20:01:38.938Z,93.65
2023-01-26T20:04:30.149Z,93.97
2023-01-26T20:07:21.152Z,94.05
2023-01-26T20:10:13.809Z,94.34
2023-01-26T20:13:04.647Z,94.66
2023-01-26T20:15:58.174Z,95.44
2023-01-26T20:18:49.037Z,95.45
2023-01-26T20:21:30.930Z,95.81
2023-01-26T20:24:14.872Z,96.23
2023-01-26T20:27:05.938Z,96.76
2023-01-26T20:29:47.958Z,96.60
2023-01-26T20:32:39.005Z,97.44
2023-01-26T20:35:30.337Z,98.05
2023-01-26T20:38:21.029Z,98.83
2023-01-26T20:41:14.014Z,99.91
2023-01-26T20:44:01.691Z,100.00
2023-01-26T20:46:56.027Z,100.00
2023-01-26T20:49:37.417Z,100.00
2023-01-26T20:52:12.353Z,100.00
2023-01-26T20:55:03.208Z,100.00
2023-01-26T20:57:53.903Z,100.00
2023-01-26T21:00:44.809Z,100.00
2023-01-26T21:03:36.670Z,100.00
2023-01-26T21:06:12.811Z,100.00
2023-01-26T21:08:58.717Z,100.00
2023-01-26T21:11:49.493Z,100.00
2023-01-26T21:14:23.784Z,100.00
2023-01-26T21:17:07.692Z,100.00
2023-01-26T21:19:41.585Z,100.00
2023-01-26T21:22:32.382Z,100.00
2023-01-26T21:25:23.392Z,100.00
2023-01-26T21:28:06.631Z,100.00
2023-01-26T21:31:05.037Z,100.00
2023-01-26T21:33:57.200Z,100.00
2023-01-26T21:36:34.101Z,100.00
2023-01-26T21:39:21.787Z,100.00
2023-01-26T21:42:13.935Z,100.00
2023-01-26T21:45:22.796Z,100.00
2023-01-26T21:48:15.921Z,100.00
2023-01-26T21:51:24.736Z,100.00
2023-01-26T21:54:16.512Z,100.00
2023-01-26T21:57:29.710Z,100.00
2023-01-26T22:00:22.055Z,100.00
2023-01-26T22:03:03.829Z,100.00
2023-01-26T22:05:54.985Z,100.00
2023-01-26T22:08:46.104Z,100.00
2023-01-26T22:11:28.264Z,100.00
2023-01-26T22:14:21.625Z,100.00
2023-01-26T22:16:52.249Z,100.00
2023-01-26T22:19:43.169Z,100.00
2023-01-26T22:22:34.673Z,100.00
2023-01-26T22:25:14.106Z,100.00
2023-01-26T22:28:05.074Z,100.00
2023-01-26T22:31:03.279Z,100.00
2023-01-26T22:33:54.280Z,100.00
2023-01-26T22:36:44.940Z,100.00
2023-01-26T22:39:35.549Z,100.00
2023-01-26T22:42:16.361Z,100.00
2023-01-26T22:44:49.439Z,100.00
2023-01-26T22:47:41.242Z,100.00
2023-01-26T22:50:22.252Z,100.00
2023-01-26T22:53:13.796Z,100.00
2023-01-26T22:56:03.325Z,100.00
2023-01-26T22:58:58.561Z,100.00
2023-01-26T23:01:39.076Z,100.00
2023-01-26T23:04:28.800Z,100.00
2023-01-26T23:06:59.687Z,100.00
2023-01-26T23:09:49.277Z,100.00
2023-01-26T23:12:40.084Z,100.00
2023-01-26T23:15:24.757Z,100.00
2023-01-26T23:18:15.503Z,100.00
2023-01-26T23:21:07.696Z,100.00
2023-01-26T23:23:59.341Z,100.00
2023-01-26T23:26:40.048Z,100.00
2023-01-26T23:29:30.922Z,100.00
2023-01-26T23:32:21.683Z,100.00
2023-01-26T23:34:55.679Z,100.00
2023-01-26T23:37:46.519Z,100.00
2023-01-26T23:40:38.341Z,100.00
2023-01-26T23:43:29.227Z,100.00
2023-01-26T23:46:14.415Z,100.00
2023-01-26T23:49:05.124Z,100.00
2023-01-26T23:51:56.679Z,100.00
2023-01-26T23:54:46.450Z,100.00
2023-01-26T23:57:17.100Z,100.00
